sensor_id;sensor_type;location;lat;lon;timestamp;P1;durP1;ratioP1;P2;durP2;ratioP2
41903;SDS011;27586;51.124;4.182;2022-09-20T00:00:42;1.08;;;0.65;;
41903;SDS011;27586;51.124;4.182;2022-09-20T00:03:09;1.02;;;0.52;;
41903;SDS011;27586;51.124;4.182;2022-09-20T00:05:37;0.60;;;0.60;;
41903;SDS011;27586;51.124;4.182;2022-09-20T00:08:05;1.17;;;0.90;;
41903;SDS011;27586;51.124;4.182;2022-09-20T00:10:34;0.70;;;0.70;;
41903;SDS011;27586;51.124;4.182;2022-09-20T00:13:02;0.73;;;0.70;;
41903;SDS011;27586;51.124;4.182;2022-09-20T00:15:28;0.80;;;0.80;;
41903;SDS011;27586;51.124;4.182;2022-09-20T00:17:54;0.60;;;0.60;;
41903;SDS011;27586;51.124;4.182;2022-09-20T00:20:19;1.15;;;0.82;;
41903;SDS011;27586;51.124;4.182;2022-09-20T00:22:45;1.20;;;0.90;;
41903;SDS011;27586;51.124;4.182;2022-09-20T00:25:14;0.60;;;0.60;;
41903;SDS011;27586;51.124;4.182;2022-09-20T00:27:40;0.90;;;0.88;;
41903;SDS011;27586;51.124;4.182;2022-09-20T00:30:06;0.70;;;0.70;;
41903;SDS011;27586;51.124;4.182;2022-09-20T00:32:33;0.68;;;0.68;;
41903;SDS011;27586;51.124;4.182;2022-09-20T00:34:58;0.75;;;0.75;;
41903;SDS011;27586;51.124;4.182;2022-09-20T00:37:38;0.45;;;0.45;;
41903;SDS011;27586;51.124;4.182;2022-09-20T00:40:15;1.13;;;0.80;;
41903;SDS011;27586;51.124;4.182;2022-09-20T00:42:44;1.00;;;0.77;;
41903;SDS011;27586;51.124;4.182;2022-09-20T00:48:01;0.75;;;0.70;;
41903;SDS011;27586;51.124;4.182;2022-09-20T00:50:30;0.82;;;0.75;;
41903;SDS011;27586;51.124;4.182;2022-09-20T00:55:37;0.60;;;0.60;;
41903;SDS011;27586;51.124;4.182;2022-09-20T00:58:09;0.75;;;0.65;;
41903;SDS011;27586;51.124;4.182;2022-09-20T01:00:36;0.80;;;0.80;;
41903;SDS011;27586;51.124;4.182;2022-09-20T01:03:04;0.98;;;0.80;;
41903;SDS011;27586;51.124;4.182;2022-09-20T01:05:33;1.00;;;0.75;;
41903;SDS011;27586;51.124;4.182;2022-09-20T01:08:01;0.90;;;0.90;;
41903;SDS011;27586;51.124;4.182;2022-09-20T01:10:28;1.00;;;0.90;;
41903;SDS011;27586;51.124;4.182;2022-09-20T01:12:54;0.75;;;0.75;;
41903;SDS011;27586;51.124;4.182;2022-09-20T01:15:20;1.10;;;1.00;;
41903;SDS011;27586;51.124;4.182;2022-09-20T01:17:49;1.75;;;1.35;;
41903;SDS011;27586;51.124;4.182;2022-09-20T01:20:24;1.15;;;1.00;;
41903;SDS011;27586;51.124;4.182;2022-09-20T01:28:49;1.42;;;1.25;;
41903;SDS011;27586;51.124;4.182;2022-09-20T01:31:45;1.23;;;0.98;;
41903;SDS011;27586;51.124;4.182;2022-09-20T01:37:04;1.30;;;1.20;;
41903;SDS011;27586;51.124;4.182;2022-09-20T01:39:55;1.83;;;1.10;;
41903;SDS011;27586;51.124;4.182;2022-09-20T01:42:55;1.83;;;1.05;;
41903;SDS011;27586;51.124;4.182;2022-09-20T01:45:30;1.85;;;1.20;;
41903;SDS011;27586;51.124;4.182;2022-09-20T01:48:03;1.30;;;1.13;;
41903;SDS011;27586;51.124;4.182;2022-09-20T02:10:30;1.60;;;1.30;;
41903;SDS011;27586;51.124;4.182;2022-09-20T02:26:40;1.23;;;1.10;;
41903;SDS011;27586;51.124;4.182;2022-09-20T02:29:21;1.15;;;0.90;;
41903;SDS011;27586;51.124;4.182;2022-09-20T02:32:20;1.00;;;0.80;;
41903;SDS011;27586;51.124;4.182;2022-09-20T02:35:00;1.50;;;0.98;;
41903;SDS011;27586;51.124;4.182;2022-09-20T02:40:37;1.38;;;1.27;;
41903;SDS011;27586;51.124;4.182;2022-09-20T02:46:08;1.48;;;1.00;;
41903;SDS011;27586;51.124;4.182;2022-09-20T02:59:28;1.67;;;1.50;;
41903;SDS011;27586;51.124;4.182;2022-09-20T03:02:30;1.10;;;1.00;;
41903;SDS011;27586;51.124;4.182;2022-09-20T03:08:20;1.17;;;1.08;;
41903;SDS011;27586;51.124;4.182;2022-09-20T03:14:07;1.35;;;1.20;;
41903;SDS011;27586;51.124;4.182;2022-09-20T03:31:03;1.85;;;1.27;;
41903;SDS011;27586;51.124;4.182;2022-09-20T03:36:22;2.05;;;1.35;;
41903;SDS011;27586;51.124;4.182;2022-09-20T03:42:04;1.58;;;1.48;;
41903;SDS011;27586;51.124;4.182;2022-09-20T03:45:15;1.73;;;1.40;;
41903;SDS011;27586;51.124;4.182;2022-09-20T04:04:26;1.52;;;1.00;;
41903;SDS011;27586;51.124;4.182;2022-09-20T04:09:45;1.63;;;1.27;;
41903;SDS011;27586;51.124;4.182;2022-09-20T04:18:11;1.30;;;1.20;;
41903;SDS011;27586;51.124;4.182;2022-09-20T04:26:38;1.33;;;1.23;;
41903;SDS011;27586;51.124;4.182;2022-09-20T04:32:06;1.13;;;0.90;;
41903;SDS011;27586;51.124;4.182;2022-09-20T04:34:47;1.80;;;1.05;;
41903;SDS011;27586;51.124;4.182;2022-09-20T04:37:43;1.85;;;1.33;;
41903;SDS011;27586;51.124;4.182;2022-09-20T04:40:14;1.27;;;0.98;;
41903;SDS011;27586;51.124;4.182;2022-09-20T04:59:09;1.58;;;1.20;;
41903;SDS011;27586;51.124;4.182;2022-09-20T05:07:10;1.27;;;1.17;;
41903;SDS011;27586;51.124;4.182;2022-09-20T05:23:51;1.30;;;1.17;;
41903;SDS011;27586;51.124;4.182;2022-09-20T05:39:58;1.13;;;1.00;;
41903;SDS011;27586;51.124;4.182;2022-09-20T05:42:33;1.88;;;1.48;;
41903;SDS011;27586;51.124;4.182;2022-09-20T05:45:35;1.10;;;0.93;;
41903;SDS011;27586;51.124;4.182;2022-09-20T05:48:19;1.17;;;0.95;;
41903;SDS011;27586;51.124;4.182;2022-09-20T06:02:16;1.45;;;1.08;;
41903;SDS011;27586;51.124;4.182;2022-09-20T06:05:12;1.40;;;1.27;;
41903;SDS011;27586;51.124;4.182;2022-09-20T06:17:18;2.03;;;1.17;;
41903;SDS011;27586;51.124;4.182;2022-09-20T06:22:52;1.25;;;1.15;;
41903;SDS011;27586;51.124;4.182;2022-09-20T06:25:22;1.30;;;1.20;;
41903;SDS011;27586;51.124;4.182;2022-09-20T06:28:32;2.67;;;1.40;;
41903;SDS011;27586;51.124;4.182;2022-09-20T06:31:02;1.75;;;1.33;;
41903;SDS011;27586;51.124;4.182;2022-09-20T06:33:42;1.95;;;1.25;;
41903;SDS011;27586;51.124;4.182;2022-09-20T06:36:21;1.20;;;1.10;;
41903;SDS011;27586;51.124;4.182;2022-09-20T06:42:13;1.85;;;1.50;;
41903;SDS011;27586;51.124;4.182;2022-09-20T06:44:39;1.50;;;1.40;;
41903;SDS011;27586;51.124;4.182;2022-09-20T06:47:10;1.63;;;1.23;;
41903;SDS011;27586;51.124;4.182;2022-09-20T06:49:36;3.00;;;1.50;;
41903;SDS011;27586;51.124;4.182;2022-09-20T06:52:05;1.38;;;1.25;;
41903;SDS011;27586;51.124;4.182;2022-09-20T06:54:31;2.00;;;1.35;;
41903;SDS011;27586;51.124;4.182;2022-09-20T06:56:59;1.80;;;1.45;;
41903;SDS011;27586;51.124;4.182;2022-09-20T06:59:28;2.03;;;1.33;;
41903;SDS011;27586;51.124;4.182;2022-09-20T07:01:53;1.88;;;1.15;;
41903;SDS011;27586;51.124;4.182;2022-09-20T07:04:19;2.55;;;1.38;;
41903;SDS011;27586;51.124;4.182;2022-09-20T07:06:47;2.22;;;1.40;;
41903;SDS011;27586;51.124;4.182;2022-09-20T07:09:12;2.03;;;1.55;;
41903;SDS011;27586;51.124;4.182;2022-09-20T07:11:38;1.23;;;1.13;;
41903;SDS011;27586;51.124;4.182;2022-09-20T07:14:04;1.73;;;1.30;;
41903;SDS011;27586;51.124;4.182;2022-09-20T07:16:31;2.55;;;1.40;;
41903;SDS011;27586;51.124;4.182;2022-09-20T07:18:57;1.60;;;1.50;;
41903;SDS011;27586;51.124;4.182;2022-09-20T07:21:24;2.33;;;1.88;;
41903;SDS011;27586;51.124;4.182;2022-09-20T07:23:50;2.15;;;1.52;;
41903;SDS011;27586;51.124;4.182;2022-09-20T07:26:19;1.88;;;1.60;;
41903;SDS011;27586;51.124;4.182;2022-09-20T07:28:49;2.15;;;1.63;;
41903;SDS011;27586;51.124;4.182;2022-09-20T07:31:16;2.13;;;1.35;;
41903;SDS011;27586;51.124;4.182;2022-09-20T07:33:43;1.48;;;1.30;;
41903;SDS011;27586;51.124;4.182;2022-09-20T07:36:09;2.03;;;1.58;;
41903;SDS011;27586;51.124;4.182;2022-09-20T07:38:38;1.58;;;1.33;;
41903;SDS011;27586;51.124;4.182;2022-09-20T07:41:06;2.00;;;1.70;;
41903;SDS011;27586;51.124;4.182;2022-09-20T07:43:32;1.90;;;1.55;;
41903;SDS011;27586;51.124;4.182;2022-09-20T07:45:58;1.05;;;0.95;;
41903;SDS011;27586;51.124;4.182;2022-09-20T07:48:25;2.00;;;1.40;;
41903;SDS011;27586;51.124;4.182;2022-09-20T07:50:55;1.80;;;1.33;;
41903;SDS011;27586;51.124;4.182;2022-09-20T07:53:23;1.50;;;1.40;;
41903;SDS011;27586;51.124;4.182;2022-09-20T07:55:55;1.52;;;1.40;;
41903;SDS011;27586;51.124;4.182;2022-09-20T07:58:30;1.92;;;1.70;;
41903;SDS011;27586;51.124;4.182;2022-09-20T08:00:58;1.80;;;1.35;;
41903;SDS011;27586;51.124;4.182;2022-09-20T08:03:29;2.42;;;1.48;;
41903;SDS011;27586;51.124;4.182;2022-09-20T08:06:02;1.67;;;1.40;;
41903;SDS011;27586;51.124;4.182;2022-09-20T08:08:40;3.35;;;1.45;;
41903;SDS011;27586;51.124;4.182;2022-09-20T08:11:11;1.40;;;1.20;;
41903;SDS011;27586;51.124;4.182;2022-09-20T08:13:40;2.10;;;1.30;;
41903;SDS011;27586;51.124;4.182;2022-09-20T08:16:17;1.65;;;1.30;;
41903;SDS011;27586;51.124;4.182;2022-09-20T08:18:47;2.75;;;1.60;;
41903;SDS011;27586;51.124;4.182;2022-09-20T08:21:15;3.10;;;1.70;;
41903;SDS011;27586;51.124;4.182;2022-09-20T08:23:42;1.70;;;1.40;;
41903;SDS011;27586;51.124;4.182;2022-09-20T08:26:11;1.55;;;1.23;;
41903;SDS011;27586;51.124;4.182;2022-09-20T08:28:39;2.22;;;1.23;;
41903;SDS011;27586;51.124;4.182;2022-09-20T08:31:08;3.30;;;1.77;;
41903;SDS011;27586;51.124;4.182;2022-09-20T08:33:37;1.95;;;1.60;;
41903;SDS011;27586;51.124;4.182;2022-09-20T08:36:04;1.70;;;1.40;;
41903;SDS011;27586;51.124;4.182;2022-09-20T08:38:34;2.92;;;1.30;;
41903;SDS011;27586;51.124;4.182;2022-09-20T08:41:04;2.00;;;1.52;;
41903;SDS011;27586;51.124;4.182;2022-09-20T08:43:36;3.05;;;2.03;;
41903;SDS011;27586;51.124;4.182;2022-09-20T08:46:05;3.17;;;1.92;;
41903;SDS011;27586;51.124;4.182;2022-09-20T08:48:34;2.53;;;1.40;;
41903;SDS011;27586;51.124;4.182;2022-09-20T08:51:00;1.90;;;1.42;;
41903;SDS011;27586;51.124;4.182;2022-09-20T08:53:27;1.83;;;1.73;;
41903;SDS011;27586;51.124;4.182;2022-09-20T08:55:54;1.60;;;1.50;;
41903;SDS011;27586;51.124;4.182;2022-09-20T08:58:24;1.92;;;1.30;;
41903;SDS011;27586;51.124;4.182;2022-09-20T09:00:51;2.33;;;1.20;;
41903;SDS011;27586;51.124;4.182;2022-09-20T09:03:19;1.27;;;1.17;;
41903;SDS011;27586;51.124;4.182;2022-09-20T09:05:46;6.70;;;1.65;;
41903;SDS011;27586;51.124;4.182;2022-09-20T09:08:24;1.50;;;1.20;;
41903;SDS011;27586;51.124;4.182;2022-09-20T09:10:53;1.67;;;1.15;;
41903;SDS011;27586;51.124;4.182;2022-09-20T09:13:31;1.50;;;1.40;;
41903;SDS011;27586;51.124;4.182;2022-09-20T09:16:17;3.58;;;1.50;;
41903;SDS011;27586;51.124;4.182;2022-09-20T09:18:44;1.42;;;1.33;;
41903;SDS011;27586;51.124;4.182;2022-09-20T09:21:17;1.25;;;1.13;;
41903;SDS011;27586;51.124;4.182;2022-09-20T09:26:25;1.55;;;1.15;;
41903;SDS011;27586;51.124;4.182;2022-09-20T09:29:07;1.02;;;0.90;;
41903;SDS011;27586;51.124;4.182;2022-09-20T09:31:49;0.88;;;0.82;;
41903;SDS011;27586;51.124;4.182;2022-09-20T09:36:49;1.10;;;0.80;;
41903;SDS011;27586;51.124;4.182;2022-09-20T09:39:25;1.95;;;1.35;;
41903;SDS011;27586;51.124;4.182;2022-09-20T09:41:56;1.20;;;1.00;;
41903;SDS011;27586;51.124;4.182;2022-09-20T09:44:27;1.00;;;0.90;;
41903;SDS011;27586;51.124;4.182;2022-09-20T09:46:59;1.40;;;0.80;;
41903;SDS011;27586;51.124;4.182;2022-09-20T09:49:26;2.63;;;1.13;;
41903;SDS011;27586;51.124;4.182;2022-09-20T09:52:01;1.50;;;1.00;;
41903;SDS011;27586;51.124;4.182;2022-09-20T09:54:52;1.05;;;0.82;;
41903;SDS011;27586;51.124;4.182;2022-09-20T10:00:22;0.63;;;0.57;;
41903;SDS011;27586;51.124;4.182;2022-09-20T10:02:56;1.13;;;0.22;;
41903;SDS011;27586;51.124;4.182;2022-09-20T10:22:16;0.80;;;0.47;;
41903;SDS011;27586;51.124;4.182;2022-09-20T10:25:00;1.20;;;0.30;;
41903;SDS011;27586;51.124;4.182;2022-09-20T10:30:21;0.45;;;0.28;;
41903;SDS011;27586;51.124;4.182;2022-09-20T10:36:00;0.13;;;0.10;;
41903;SDS011;27586;51.124;4.182;2022-09-20T10:38:52;0.85;;;0.45;;
41903;SDS011;27586;51.124;4.182;2022-09-20T10:44:31;0.10;;;0.10;;
41903;SDS011;27586;51.124;4.182;2022-09-20T10:47:11;0.30;;;0.10;;
41903;SDS011;27586;51.124;4.182;2022-09-20T11:00:45;0.25;;;0.25;;
41903;SDS011;27586;51.124;4.182;2022-09-20T11:06:18;0.20;;;0.20;;
41903;SDS011;27586;51.124;4.182;2022-09-20T11:08:51;0.20;;;0.10;;
41903;SDS011;27586;51.124;4.182;2022-09-20T11:11:24;0.20;;;0.10;;
41903;SDS011;27586;51.124;4.182;2022-09-20T11:16:35;0.13;;;0.13;;
41903;SDS011;27586;51.124;4.182;2022-09-20T11:27:36;0.80;;;0.38;;
41903;SDS011;27586;51.124;4.182;2022-09-20T11:35:36;0.32;;;0.20;;
41903;SDS011;27586;51.124;4.182;2022-09-20T11:38:15;0.13;;;0.13;;
41903;SDS011;27586;51.124;4.182;2022-09-20T11:40:44;0.30;;;0.20;;
41903;SDS011;27586;51.124;4.182;2022-09-20T11:43:19;0.32;;;0.25;;
41903;SDS011;27586;51.124;4.182;2022-09-20T11:45:47;0.75;;;0.13;;
41903;SDS011;27586;51.124;4.182;2022-09-20T11:56:57;0.20;;;0.20;;
41903;SDS011;27586;51.124;4.182;2022-09-20T11:59:28;0.10;;;0.10;;
41903;SDS011;27586;51.124;4.182;2022-09-20T12:01:58;1.10;;;0.30;;
41903;SDS011;27586;51.124;4.182;2022-09-20T12:04:29;0.95;;;0.25;;
41903;SDS011;27586;51.124;4.182;2022-09-20T12:11:52;0.85;;;0.40;;
41903;SDS011;27586;51.124;4.182;2022-09-20T12:14:22;0.30;;;0.30;;
41903;SDS011;27586;51.124;4.182;2022-09-20T12:16:51;0.43;;;0.20;;
41903;SDS011;27586;51.124;4.182;2022-09-20T12:26:58;0.10;;;0.10;;
41903;SDS011;27586;51.124;4.182;2022-09-20T12:43:29;0.25;;;0.20;;
41903;SDS011;27586;51.124;4.182;2022-09-20T12:45:57;1.50;;;0.30;;
41903;SDS011;27586;51.124;4.182;2022-09-20T12:48:24;0.10;;;0.10;;
41903;SDS011;27586;51.124;4.182;2022-09-20T12:51:00;0.25;;;0.25;;
41903;SDS011;27586;51.124;4.182;2022-09-20T12:54:00;0.43;;;0.30;;
41903;SDS011;27586;51.124;4.182;2022-09-20T12:56:33;0.20;;;0.20;;
41903;SDS011;27586;51.124;4.182;2022-09-20T12:59:01;0.95;;;0.40;;
41903;SDS011;27586;51.124;4.182;2022-09-20T13:01:33;0.75;;;0.38;;
41903;SDS011;27586;51.124;4.182;2022-09-20T13:10:19;0.63;;;0.20;;
41903;SDS011;27586;51.124;4.182;2022-09-20T13:12:51;0.77;;;0.22;;
41903;SDS011;27586;51.124;4.182;2022-09-20T13:15:20;1.48;;;0.60;;
41903;SDS011;27586;51.124;4.182;2022-09-20T13:17:47;0.22;;;0.20;;
41903;SDS011;27586;51.124;4.182;2022-09-20T13:20:26;0.10;;;0.10;;
41903;SDS011;27586;51.124;4.182;2022-09-20T13:22:58;0.20;;;0.20;;
41903;SDS011;27586;51.124;4.182;2022-09-20T13:25:26;0.10;;;0.10;;
41903;SDS011;27586;51.124;4.182;2022-09-20T13:28:00;0.40;;;0.32;;
41903;SDS011;27586;51.124;4.182;2022-09-20T13:30:48;0.40;;;0.40;;
41903;SDS011;27586;51.124;4.182;2022-09-20T13:33:23;0.28;;;0.28;;
41903;SDS011;27586;51.124;4.182;2022-09-20T13:35:50;0.40;;;0.40;;
41903;SDS011;27586;51.124;4.182;2022-09-20T13:38:18;0.30;;;0.30;;
41903;SDS011;27586;51.124;4.182;2022-09-20T13:40:50;0.50;;;0.40;;
41903;SDS011;27586;51.124;4.182;2022-09-20T13:43:25;0.32;;;0.32;;
41903;SDS011;27586;51.124;4.182;2022-09-20T13:45:56;0.60;;;0.40;;
41903;SDS011;27586;51.124;4.182;2022-09-20T13:48:26;0.30;;;0.30;;
41903;SDS011;27586;51.124;4.182;2022-09-20T13:50:53;0.40;;;0.40;;
41903;SDS011;27586;51.124;4.182;2022-09-20T13:53:21;0.43;;;0.30;;
41903;SDS011;27586;51.124;4.182;2022-09-20T13:55:47;0.20;;;0.20;;
41903;SDS011;27586;51.124;4.182;2022-09-20T13:58:18;0.20;;;0.20;;
41903;SDS011;27586;51.124;4.182;2022-09-20T14:00:56;0.20;;;0.20;;
41903;SDS011;27586;51.124;4.182;2022-09-20T14:03:25;0.60;;;0.28;;
41903;SDS011;27586;51.124;4.182;2022-09-20T14:05:57;0.20;;;0.20;;
41903;SDS011;27586;51.124;4.182;2022-09-20T14:08:30;0.20;;;0.20;;
41903;SDS011;27586;51.124;4.182;2022-09-20T14:13:48;1.08;;;0.73;;
41903;SDS011;27586;51.124;4.182;2022-09-20T14:16:15;0.57;;;0.20;;
41903;SDS011;27586;51.124;4.182;2022-09-20T14:18:43;0.60;;;0.60;;
41903;SDS011;27586;51.124;4.182;2022-09-20T14:21:11;0.50;;;0.20;;
41903;SDS011;27586;51.124;4.182;2022-09-20T14:23:55;0.20;;;0.20;;
41903;SDS011;27586;51.124;4.182;2022-09-20T14:26:31;0.57;;;0.55;;
41903;SDS011;27586;51.124;4.182;2022-09-20T14:31:54;0.38;;;0.38;;
41903;SDS011;27586;51.124;4.182;2022-09-20T14:34:21;0.40;;;0.20;;
41903;SDS011;27586;51.124;4.182;2022-09-20T14:36:48;0.50;;;0.30;;
41903;SDS011;27586;51.124;4.182;2022-09-20T14:39:15;0.70;;;0.20;;
41903;SDS011;27586;51.124;4.182;2022-09-20T14:41:46;0.52;;;0.30;;
41903;SDS011;27586;51.124;4.182;2022-09-20T14:44:33;1.00;;;0.60;;
41903;SDS011;27586;51.124;4.182;2022-09-20T14:46:58;0.55;;;0.32;;
41903;SDS011;27586;51.124;4.182;2022-09-20T14:49:37;0.35;;;0.35;;
41903;SDS011;27586;51.124;4.182;2022-09-20T14:55:00;0.10;;;0.10;;
41903;SDS011;27586;51.124;4.182;2022-09-20T14:57:41;0.10;;;0.10;;
41903;SDS011;27586;51.124;4.182;2022-09-20T15:00:12;0.30;;;0.30;;
41903;SDS011;27586;51.124;4.182;2022-09-20T15:02:42;0.45;;;0.30;;
41903;SDS011;27586;51.124;4.182;2022-09-20T15:05:42;0.20;;;0.20;;
41903;SDS011;27586;51.124;4.182;2022-09-20T15:08:01;0.20;;;0.20;;
41903;SDS011;27586;51.124;4.182;2022-09-20T15:10:27;0.30;;;0.22;;
41903;SDS011;27586;51.124;4.182;2022-09-20T15:12:54;0.17;;;0.15;;
41903;SDS011;27586;51.124;4.182;2022-09-20T15:15:20;0.10;;;0.10;;
41903;SDS011;27586;51.124;4.182;2022-09-20T15:17:46;0.22;;;0.22;;
41903;SDS011;27586;51.124;4.182;2022-09-20T15:20:14;0.13;;;0.13;;
41903;SDS011;27586;51.124;4.182;2022-09-20T15:22:42;0.20;;;0.20;;
41903;SDS011;27586;51.124;4.182;2022-09-20T15:25:11;0.20;;;0.20;;
41903;SDS011;27586;51.124;4.182;2022-09-20T15:27:38;0.40;;;0.32;;
41903;SDS011;27586;51.124;4.182;2022-09-20T15:30:04;0.43;;;0.15;;
41903;SDS011;27586;51.124;4.182;2022-09-20T15:32:30;0.85;;;0.30;;
41903;SDS011;27586;51.124;4.182;2022-09-20T15:34:55;0.22;;;0.22;;
41903;SDS011;27586;51.124;4.182;2022-09-20T15:37:21;0.47;;;0.20;;
41903;SDS011;27586;51.124;4.182;2022-09-20T15:39:47;0.30;;;0.30;;
41903;SDS011;27586;51.124;4.182;2022-09-20T15:42:13;0.10;;;0.10;;
41903;SDS011;27586;51.124;4.182;2022-09-20T15:44:39;0.20;;;0.20;;
41903;SDS011;27586;51.124;4.182;2022-09-20T15:47:05;0.20;;;0.20;;
41903;SDS011;27586;51.124;4.182;2022-09-20T15:49:31;0.17;;;0.17;;
41903;SDS011;27586;51.124;4.182;2022-09-20T15:51:57;0.38;;;0.38;;
41903;SDS011;27586;51.124;4.182;2022-09-20T15:54:23;0.15;;;0.10;;
41903;SDS011;27586;51.124;4.182;2022-09-20T15:56:50;0.20;;;0.20;;
41903;SDS011;27586;51.124;4.182;2022-09-20T15:59:17;0.20;;;0.20;;
41903;SDS011;27586;51.124;4.182;2022-09-20T16:01:47;1.05;;;0.30;;
41903;SDS011;27586;51.124;4.182;2022-09-20T16:04:16;0.20;;;0.20;;
41903;SDS011;27586;51.124;4.182;2022-09-20T16:06:44;0.20;;;0.20;;
41903;SDS011;27586;51.124;4.182;2022-09-20T16:09:12;0.30;;;0.30;;
41903;SDS011;27586;51.124;4.182;2022-09-20T16:11:38;0.20;;;0.20;;
41903;SDS011;27586;51.124;4.182;2022-09-20T16:14:04;0.20;;;0.20;;
41903;SDS011;27586;51.124;4.182;2022-09-20T16:16:31;0.50;;;0.30;;
41903;SDS011;27586;51.124;4.182;2022-09-20T16:18:57;0.15;;;0.15;;
41903;SDS011;27586;51.124;4.182;2022-09-20T16:21:42;0.57;;;0.20;;
41903;SDS011;27586;51.124;4.182;2022-09-20T16:24:13;0.30;;;0.20;;
41903;SDS011;27586;51.124;4.182;2022-09-20T16:26:40;0.40;;;0.40;;
41903;SDS011;27586;51.124;4.182;2022-09-20T16:29:05;0.20;;;0.13;;
41903;SDS011;27586;51.124;4.182;2022-09-20T16:34:01;0.95;;;0.40;;
41903;SDS011;27586;51.124;4.182;2022-09-20T16:36:30;0.40;;;0.40;;
41903;SDS011;27586;51.124;4.182;2022-09-20T16:38:56;0.10;;;0.10;;
41903;SDS011;27586;51.124;4.182;2022-09-20T16:41:23;0.30;;;0.28;;
41903;SDS011;27586;51.124;4.182;2022-09-20T16:43:50;0.20;;;0.20;;
41903;SDS011;27586;51.124;4.182;2022-09-20T16:46:17;0.45;;;0.45;;
41903;SDS011;27586;51.124;4.182;2022-09-20T16:48:44;0.20;;;0.20;;
41903;SDS011;27586;51.124;4.182;2022-09-20T16:51:11;0.77;;;0.28;;
41903;SDS011;27586;51.124;4.182;2022-09-20T16:53:38;0.55;;;0.55;;
41903;SDS011;27586;51.124;4.182;2022-09-20T16:56:04;0.20;;;0.20;;
41903;SDS011;27586;51.124;4.182;2022-09-20T16:58:32;0.22;;;0.22;;
41903;SDS011;27586;51.124;4.182;2022-09-20T17:01:05;0.40;;;0.40;;
41903;SDS011;27586;51.124;4.182;2022-09-20T17:03:32;0.68;;;0.45;;
41903;SDS011;27586;51.124;4.182;2022-09-20T17:06:02;0.60;;;0.60;;
41903;SDS011;27586;51.124;4.182;2022-09-20T17:08:30;0.45;;;0.45;;
41903;SDS011;27586;51.124;4.182;2022-09-20T17:11:03;0.40;;;0.40;;
41903;SDS011;27586;51.124;4.182;2022-09-20T17:13:30;2.38;;;0.45;;
41903;SDS011;27586;51.124;4.182;2022-09-20T17:16:09;0.60;;;0.50;;
41903;SDS011;27586;51.124;4.182;2022-09-20T17:18:42;0.47;;;0.47;;
41903;SDS011;27586;51.124;4.182;2022-09-20T17:21:09;1.27;;;0.60;;
41903;SDS011;27586;51.124;4.182;2022-09-20T17:23:40;0.52;;;0.52;;
41903;SDS011;27586;51.124;4.182;2022-09-20T17:26:11;0.60;;;0.60;;
41903;SDS011;27586;51.124;4.182;2022-09-20T17:28:43;0.43;;;0.43;;
41903;SDS011;27586;51.124;4.182;2022-09-20T17:31:11;1.38;;;0.75;;
41903;SDS011;27586;51.124;4.182;2022-09-20T17:33:39;0.60;;;0.60;;
41903;SDS011;27586;51.124;4.182;2022-09-20T17:36:05;0.55;;;0.55;;
41903;SDS011;27586;51.124;4.182;2022-09-20T17:38:33;0.60;;;0.60;;
41903;SDS011;27586;51.124;4.182;2022-09-20T17:43:27;0.60;;;0.60;;
41903;SDS011;27586;51.124;4.182;2022-09-20T17:45:55;0.82;;;0.70;;
41903;SDS011;27586;51.124;4.182;2022-09-20T17:48:29;0.95;;;0.80;;
41903;SDS011;27586;51.124;4.182;2022-09-20T17:50:55;0.90;;;0.63;;
41903;SDS011;27586;51.124;4.182;2022-09-20T17:53:21;0.50;;;0.50;;
41903;SDS011;27586;51.124;4.182;2022-09-20T17:55:56;1.08;;;0.65;;
41903;SDS011;27586;51.124;4.182;2022-09-20T17:58:22;0.77;;;0.52;;
41903;SDS011;27586;51.124;4.182;2022-09-20T18:00:50;1.08;;;0.85;;
41903;SDS011;27586;51.124;4.182;2022-09-20T18:03:20;0.60;;;0.60;;
41903;SDS011;27586;51.124;4.182;2022-09-20T18:05:50;0.93;;;0.60;;
41903;SDS011;27586;51.124;4.182;2022-09-20T18:08:16;0.85;;;0.75;;
41903;SDS011;27586;51.124;4.182;2022-09-20T18:10:55;1.30;;;0.77;;
41903;SDS011;27586;51.124;4.182;2022-09-20T18:13:21;1.25;;;0.93;;
41903;SDS011;27586;51.124;4.182;2022-09-20T18:15:47;0.77;;;0.77;;
41903;SDS011;27586;51.124;4.182;2022-09-20T18:18:13;0.60;;;0.60;;
41903;SDS011;27586;51.124;4.182;2022-09-20T18:20:39;0.70;;;0.70;;
41903;SDS011;27586;51.124;4.182;2022-09-20T18:23:04;0.95;;;0.60;;
41903;SDS011;27586;51.124;4.182;2022-09-20T18:25:30;0.60;;;0.60;;
41903;SDS011;27586;51.124;4.182;2022-09-20T18:28:18;0.73;;;0.73;;
41903;SDS011;27586;51.124;4.182;2022-09-20T18:30:43;1.42;;;0.50;;
41903;SDS011;27586;51.124;4.182;2022-09-20T18:33:10;1.05;;;0.73;;
41903;SDS011;27586;51.124;4.182;2022-09-20T18:35:37;1.10;;;0.70;;
41903;SDS011;27586;51.124;4.182;2022-09-20T18:38:06;0.70;;;0.50;;
41903;SDS011;27586;51.124;4.182;2022-09-20T18:40:36;0.60;;;0.60;;
41903;SDS011;27586;51.124;4.182;2022-09-20T18:43:02;0.52;;;0.52;;
41903;SDS011;27586;51.124;4.182;2022-09-20T18:45:28;1.10;;;0.57;;
41903;SDS011;27586;51.124;4.182;2022-09-20T18:47:54;1.17;;;0.70;;
41903;SDS011;27586;51.124;4.182;2022-09-20T18:50:23;0.60;;;0.60;;
41903;SDS011;27586;51.124;4.182;2022-09-20T18:52:53;0.50;;;0.50;;
41903;SDS011;27586;51.124;4.182;2022-09-20T18:55:19;0.73;;;0.65;;
41903;SDS011;27586;51.124;4.182;2022-09-20T18:57:46;1.38;;;1.13;;
41903;SDS011;27586;51.124;4.182;2022-09-20T19:00:12;1.60;;;1.00;;
41903;SDS011;27586;51.124;4.182;2022-09-20T19:08:22;0.63;;;0.60;;
41903;SDS011;27586;51.124;4.182;2022-09-20T19:11:00;1.85;;;1.00;;
41903;SDS011;27586;51.124;4.182;2022-09-20T19:13:47;0.73;;;0.73;;
41903;SDS011;27586;51.124;4.182;2022-09-20T19:26:41;3.42;;;0.80;;
41903;SDS011;27586;51.124;4.182;2022-09-20T19:29:21;1.38;;;0.80;;
41903;SDS011;27586;51.124;4.182;2022-09-20T19:31:50;2.30;;;1.08;;
41903;SDS011;27586;51.124;4.182;2022-09-20T19:34:20;1.00;;;0.90;;
41903;SDS011;27586;51.124;4.182;2022-09-20T19:36:56;1.83;;;1.20;;
41903;SDS011;27586;51.124;4.182;2022-09-20T19:50:52;1.55;;;1.20;;
41903;SDS011;27586;51.124;4.182;2022-09-20T19:53:19;1.17;;;1.00;;
41903;SDS011;27586;51.124;4.182;2022-09-20T19:55:52;1.95;;;1.10;;
41903;SDS011;27586;51.124;4.182;2022-09-20T19:58:24;1.98;;;1.17;;
41903;SDS011;27586;51.124;4.182;2022-09-20T20:00:50;0.90;;;0.90;;
41903;SDS011;27586;51.124;4.182;2022-09-20T20:03:17;1.20;;;0.82;;
41903;SDS011;27586;51.124;4.182;2022-09-20T20:06:02;1.45;;;1.10;;
41903;SDS011;27586;51.124;4.182;2022-09-20T20:08:40;1.40;;;1.30;;
41903;SDS011;27586;51.124;4.182;2022-09-20T20:11:33;1.02;;;0.93;;
41903;SDS011;27586;51.124;4.182;2022-09-20T20:14:09;1.20;;;1.10;;
41903;SDS011;27586;51.124;4.182;2022-09-20T20:19:49;1.83;;;1.20;;
41903;SDS011;27586;51.124;4.182;2022-09-20T20:27:58;1.27;;;0.98;;
41903;SDS011;27586;51.124;4.182;2022-09-20T20:30:24;1.20;;;1.10;;
41903;SDS011;27586;51.124;4.182;2022-09-20T20:32:53;1.55;;;1.38;;
41903;SDS011;27586;51.124;4.182;2022-09-20T20:35:21;1.45;;;1.30;;
41903;SDS011;27586;51.124;4.182;2022-09-20T20:37:48;2.05;;;1.45;;
41903;SDS011;27586;51.124;4.182;2022-09-20T20:40:14;1.67;;;1.40;;
41903;SDS011;27586;51.124;4.182;2022-09-20T20:42:39;1.75;;;1.52;;
41903;SDS011;27586;51.124;4.182;2022-09-20T20:45:07;1.90;;;1.70;;
41903;SDS011;27586;51.124;4.182;2022-09-20T20:47:33;1.65;;;1.55;;
41903;SDS011;27586;51.124;4.182;2022-09-20T20:49:59;1.67;;;1.27;;
41903;SDS011;27586;51.124;4.182;2022-09-20T20:52:24;1.80;;;1.40;;
41903;SDS011;27586;51.124;4.182;2022-09-20T20:54:50;1.85;;;1.45;;
41903;SDS011;27586;51.124;4.182;2022-09-20T20:57:16;2.65;;;1.45;;
41903;SDS011;27586;51.124;4.182;2022-09-20T20:59:42;1.90;;;1.23;;
41903;SDS011;27586;51.124;4.182;2022-09-20T21:02:08;2.00;;;1.60;;
41903;SDS011;27586;51.124;4.182;2022-09-20T21:04:34;1.55;;;1.27;;
41903;SDS011;27586;51.124;4.182;2022-09-20T21:07:01;1.88;;;1.38;;
41903;SDS011;27586;51.124;4.182;2022-09-20T21:09:27;1.60;;;1.27;;